Time;durP1;ratioP1;P1;durP2;ratioP2;P2;SDS_P1;SDS_P2;PMS_P1;PMS_P2;Temp;Humidity;BMP_temperature;BMP_pressure;BME280_temperature;BME280_humidity;BME280_pressure;Samples;Min_cycle;Max_cycle;Signal;HPM_P1;HPM_P2
2020/12/29 00:02:37;;;;;;;;;;;;;;;;;;;;;
2020/12/29 00:05:18;;;;;;;7.97;6.65;;;5.30;92.40;;;;;;6184766;23;20392;-87
2020/12/29 00:08:08;;;;;;;8.23;6.85;;;5.30;92.40;;;;;;6137946;23;20491;-86
2020/12/29 00:10:41;;;;;;;8.52;6.80;;;5.20;92.40;;;;;;6146255;23;20005;-86
2020/12/29 00:16:19;;;;;;;9.20;6.65;;;5.30;92.50;;;;;;6165014;23;20097;-88
2020/12/29 00:19:01;;;;;;;8.45;6.93;;;5.20;92.40;;;;;;6185438;23;20013;-87
2020/12/29 00:21:30;;;;;;;7.53;6.18;;;5.20;92.40;;;;;;6163014;23;20016;-86
2020/12/29 00:24:27;;;;;;;6.70;6.00;;;5.20;92.40;;;;;;6184353;23;20061;-87
2020/12/29 00:27:07;;;;;;;7.18;6.38;;;5.30;92.40;;;;;;6163616;23;20005;-88
2020/12/29 00:29:38;;;;;;;7.80;6.43;;;5.30;92.40;;;;;;6184856;23;20001;-88
2020/12/29 00:32:26;;;;;;;7.72;6.32;;;5.30;92.40;;;;;;6160010;23;20009;-88
2020/12/29 00:34:55;;;;;;;7.07;6.15;;;5.20;92.40;;;;;;6160938;23;20001;-88
2020/12/29 00:37:30;;;;;;;8.02;6.32;;;5.20;92.30;;;;;;6158780;23;20335;-86
2020/12/29 00:39:59;;;;;;;7.20;5.65;;;5.20;92.30;;;;;;6161527;23;20016;-87
2020/12/29 00:42:57;;;;;;;7.65;6.15;;;5.20;92.30;;;;;;6191056;23;20009;-86
2020/12/29 00:45:32;;;;;;;7.38;5.72;;;5.20;92.30;;;;;;6185403;23;20057;-88
2020/12/29 00:51:03;;;;;;;6.55;5.57;;;5.20;92.30;;;;;;6185536;23;20057;-87
2020/12/29 00:53:48;;;;;;;7.55;5.63;;;5.20;92.30;;;;;;6184533;23;20100;-87
2020/12/29 00:56:24;;;;;;;6.95;5.65;;;5.20;92.30;;;;;;6161673;23;20025;-88
2020/12/29 00:59:13;;;;;;;6.53;5.22;;;5.20;92.30;;;;;;6160376;23;20046;-87
2020/12/29 01:02:09;;;;;;;;;;;;;;;;;;;;;
2020/12/29 01:04:56;;;;;;;8.70;5.55;;;5.10;92.20;;;;;;6176890;23;20398;-88
2020/12/29 01:07:46;;;;;;;6.88;5.70;;;5.10;92.20;;;;;;6184671;23;20388;-89
2020/12/29 01:10:25;;;;;;;;;;;;;;;;;;;;;
2020/12/29 01:13:05;;;;;;;;;;;;;;;;;;;;;
2020/12/29 01:15:36;;;;;;;7.03;5.40;;;5.10;92.20;;;;;;6183645;23;20101;-88
2020/12/29 01:18:02;;;;;;;7.10;5.43;;;5.10;92.20;;;;;;6185659;23;20083;-89
2020/12/29 01:20:31;;;;;;;7.07;5.43;;;5.10;92.20;;;;;;6161701;23;20016;-88
2020/12/29 01:23:20;;;;;;;6.20;5.18;;;5.10;92.20;;;;;;6186106;23;20024;-88
2020/12/29 01:28:59;;;;;;;;;;;;;;;;;;;;;
2020/12/29 01:31:31;;;;;;;6.70;5.20;;;5.10;92.20;;;;;;6186694;23;20084;-88
2020/12/29 01:34:13;;;;;;;;;;;;;;;;;;;;;
2020/12/29 01:37:02;;;;;;;;;;;5.10;92.20;;;;;;6187387;23;20084;-88
2020/12/29 01:39:29;;;;;;;7.18;5.05;;;5.10;92.20;;;;;;6183876;23;19944;-88
2020/12/29 01:41:55;;;;;;;6.63;5.38;;;5.10;92.20;;;;;;6186669;23;20085;-89
2020/12/29 01:44:44;;;;;;;7.38;5.13;;;5.10;92.20;;;;;;6185213;23;20001;-86
2020/12/29 01:47:22;;;;;;;8.20;5.47;;;5.10;92.20;;;;;;6184671;23;20067;-88
2020/12/29 01:49:56;;;;;;;6.75;5.70;;;5.10;92.20;;;;;;6182809;23;20005;-88
2020/12/29 01:52:51;;;;;;;7.15;5.95;;;5.10;92.20;;;;;;6183817;23;20111;-88
2020/12/29 01:55:36;;;;;;;7.50;5.72;;;5.10;92.30;;;;;;6182410;23;20017;-87
2020/12/29 01:58:02;;;;;;;7.82;5.35;;;5.10;92.30;;;;;;6183503;23;20016;-88
2020/12/29 02:00:38;;;;;;;6.40;5.35;;;5.00;92.20;;;;;;6184198;23;20005;-87
2020/12/29 02:03:30;;;;;;;7.47;6.10;;;5.00;92.20;;;;;;6161479;23;20013;-89
2020/12/29 02:05:58;;;;;;;6.35;5.57;;;5.00;92.20;;;;;;6167742;23;20007;-87
2020/12/29 02:08:30;;;;;;;6.43;5.45;;;5.00;92.20;;;;;;6185302;23;20327;-88
2020/12/29 02:10:56;;;;;;;7.53;5.93;;;5.00;92.20;;;;;;6161959;23;20001;-87
2020/12/29 02:13:27;;;;;;;7.20;6.25;;;5.00;92.20;;;;;;6185637;23;20001;-89
2020/12/29 02:16:02;;;;;;;6.60;5.80;;;5.00;92.20;;;;;;6160800;23;20005;-87
2020/12/29 02:19:05;;;;;;;6.97;5.90;;;5.10;92.30;;;;;;6189913;23;20032;-89
2020/12/29 02:22:22;;;;;;;;;;;;;;;;;;;;;
2020/12/29 02:24:40;;;;;;;9.85;6.50;;;5.00;92.20;;;;;;6184920;23;20012;-86
2020/12/29 02:27:25;;;;;;;7.35;6.22;;;5.00;92.20;;;;;;6197367;23;20005;-88
2020/12/29 02:30:04;;;;;;;7.15;6.05;;;5.00;92.20;;;;;;6197340;23;20005;-87
2020/12/29 02:32:40;;;;;;;7.95;6.53;;;5.00;92.20;;;;;;6200678;23;19997;-87
2020/12/29 02:35:16;;;;;;;7.00;5.80;;;5.00;92.20;;;;;;6174389;23;20075;-88
2020/12/29 02:37:48;;;;;;;7.95;6.00;;;5.00;92.30;;;;;;6200630;23;20088;-87
2020/12/29 02:40:14;;;;;;;8.02;6.50;;;5.00;92.50;;;;;;6197405;23;20083;-88
2020/12/29 02:42:41;;;;;;;7.53;6.35;;;5.00;92.30;;;;;;6200217;23;20334;-87
2020/12/29 02:45:38;;;;;;;8.20;6.95;;;5.00;92.30;;;;;;6197324;23;20427;-89
2020/12/29 02:48:12;;;;;;;8.73;6.45;;;5.00;92.30;;;;;;6196276;23;20101;-93
2020/12/29 02:51:01;;;;;;;7.80;6.78;;;5.00;92.30;;;;;;6173631;23;20001;-87
2020/12/29 02:53:56;;;;;;;;;;;;;;;;;;;;;
2020/12/29 02:56:25;;;;;;;7.50;6.70;;;5.00;92.30;;;;;;6198336;23;20033;-87
2020/12/29 02:58:56;;;;;;;7.72;6.63;;;5.00;92.30;;;;;;6173505;23;20013;-87
2020/12/29 03:01:28;;;;;;;7.65;6.88;;;5.00;92.30;;;;;;6174018;23;20074;-87
2020/12/29 03:04:05;;;;;;;7.93;6.68;;;5.00;92.30;;;;;;6200657;23;20442;-88
2020/12/29 03:06:45;;;;;;;;;;;;;;;;;;;;;
2020/12/29 03:09:25;;;;;;;7.90;7.05;;;5.00;92.40;;;;;;6196934;23;20056;-88
2020/12/29 03:12:00;;;;;;;8.57;6.55;;;5.00;92.40;;;;;;6191575;23;20005;-88
2020/12/29 03:14:51;;;;;;;8.60;7.32;;;5.00;92.40;;;;;;6186976;23;20012;-86
2020/12/29 03:17:24;;;;;;;7.07;6.38;;;5.00;92.40;;;;;;6187820;23;20344;-87
2020/12/29 03:20:00;;;;;;;;;;;;;;;;;;;;;
2020/12/29 03:22:42;;;;;;;7.88;6.68;;;5.00;92.40;;;;;;6188957;23;20800;-90
2020/12/29 03:25:41;;;;;;;;;;;;;;;;;;;;;
2020/12/29 03:28:26;;;;;;;;;;;;;;;;;;;;;
2020/12/29 03:31:18;;;;;;;8.18;6.65;;;5.00;92.40;;;;;;6192424;23;20037;-89
2020/12/29 03:33:59;;;;;;;8.85;6.63;;;5.00;92.40;;;;;;6193340;23;20012;-88
2020/12/29 03:36:30;;;;;;;8.68;6.88;;;5.00;92.30;;;;;;6165739;23;20012;-88
2020/12/29 03:39:01;;;;;;;8.60;6.45;;;5.00;92.30;;;;;;6188212;23;20013;-86
2020/12/29 03:41:48;;;;;;;8.40;6.68;;;5.00;92.30;;;;;;6187799;23;20428;-87
2020/12/29 03:44:21;;;;;;;7.90;6.68;;;5.00;92.30;;;;;;6196216;23;20065;-89
2020/12/29 03:47:01;;;;;;;8.52;6.82;;;5.00;92.50;;;;;;6196351;23;20011;-87
2020/12/29 03:49:38;;;;;;;;;;;5.00;92.30;;;;;;6195620;23;20016;-88
2020/12/29 03:52:19;;;;;;;6.93;6.13;;;5.00;92.20;;;;;;6188156;23;19900;-88
2020/12/29 03:54:55;;;;;;;8.95;6.53;;;4.90;92.20;;;;;;6187868;23;20442;-87
2020/12/29 03:57:23;;;;;;;8.88;6.90;;;4.90;92.20;;;;;;6193095;23;20013;-88
2020/12/29 03:59:54;;;;;;;7.60;6.80;;;4.90;92.20;;;;;;6198992;23;20387;-90
2020/12/29 04:02:23;;;;;;;9.15;7.22;;;4.90;92.20;;;;;;6194473;23;20307;-88
2020/12/29 04:05:01;;;;;;;;;;;;;;;;;;;;;
2020/12/29 04:07:48;;;;;;;;;;;;;;;;;;;;;
2020/12/29 04:10:30;;;;;;;7.88;6.45;;;4.90;92.10;;;;;;6191080;23;20395;-88
2020/12/29 04:12:56;;;;;;;8.63;6.45;;;5.00;92.20;;;;;;6194969;23;20001;-88
2020/12/29 04:15:55;;;;;;;;;;;;;;;;;;;;;
2020/12/29 04:18:31;;;;;;;;;;;;;;;;;;;;;
2020/12/29 04:21:35;;;;;;;;;;;;;;;;;;;;;
2020/12/29 04:24:08;;;;;;;10.55;7.53;;;4.90;92.20;;;;;;6185300;23;20085;-87
2020/12/29 04:26:51;;;;;;;9.00;7.43;;;4.90;92.30;;;;;;6184618;23;20005;-90
2020/12/29 04:32:41;;;;;;;8.23;6.78;;;4.90;92.20;;;;;;6185267;23;20005;-87
2020/12/29 04:35:16;;;;;;;7.88;7.00;;;4.90;92.20;;;;;;6185490;23;20008;-87
2020/12/29 04:38:01;;;;;;;9.40;7.35;;;4.90;92.20;;;;;;6187174;23;20085;-88
2020/12/29 04:40:32;;;;;;;8.73;7.15;;;4.90;92.30;;;;;;6160456;23;20148;-87
2020/12/29 04:43:09;;;;;;;8.02;7.00;;;4.90;92.20;;;;;;6185429;23;19997;-89
2020/12/29 04:45:48;;;;;;;;;;;;;;;;;;;;;
2020/12/29 04:48:36;;;;;;;8.32;7.22;;;4.90;92.20;;;;;;6186239;23;20112;-88
2020/12/29 04:51:49;;;;;;;9.02;6.57;;;4.90;92.20;;;;;;6184898;23;20004;-87
2020/12/29 04:54:24;;;;;;;8.65;6.97;;;4.90;92.20;;;;;;6181430;23;20056;-87
2020/12/29 04:56:55;;;;;;;10.70;7.13;;;4.90;92.20;;;;;;6185505;23;20309;-88
2020/12/29 04:59:21;;;;;;;7.95;6.95;;;4.90;92.30;;;;;;6184840;23;20001;-86
2020/12/29 05:01:47;;;;;;;9.23;7.43;;;4.90;92.30;;;;;;6135628;23;20327;-87
2020/12/29 05:04:23;;;;;;;8.75;7.43;;;4.90;92.30;;;;;;6159803;23;20001;-88
2020/12/29 05:06:55;;;;;;;10.90;7.57;;;4.80;92.30;;;;;;6184816;23;20009;-89
2020/12/29 05:09:53;;;;;;;;;;;;;;;;;;;;;
2020/12/29 05:12:34;;;;;;;8.45;7.55;;;4.90;92.30;;;;;;6180987;23;20088;-93
2020/12/29 05:15:17;;;;;;;8.40;7.28;;;4.90;92.20;;;;;;6161062;23;20013;-87
2020/12/29 05:17:54;;;;;;;10.68;7.47;;;4.90;92.20;;;;;;6184272;23;20019;-88
2020/12/29 05:20:41;;;;;;;9.93;7.32;;;4.90;92.30;;;;;;6185442;23;20055;-87
2020/12/29 05:26:27;;;;;;;10.02;8.65;;;4.90;92.30;;;;;;6186355;23;20340;-88
2020/12/29 05:29:38;;;;;;;;;;;;;;;;;;;;;
2020/12/29 05:32:26;;;;;;;8.80;7.45;;;4.90;92.30;;;;;;6182748;23;20309;-86
2020/12/29 05:35:09;;;;;;;;;;;;;;;;;;;;;
2020/12/29 05:37:45;;;;;;;10.25;8.25;;;4.90;92.40;;;;;;6184092;23;20076;-87
2020/12/29 05:40:52;;;;;;;11.05;8.43;;;4.90;92.40;;;;;;6185567;23;20009;-89
2020/12/29 05:43:33;;;;;;;12.60;9.00;;;4.90;92.40;;;;;;6165372;23;20005;-89
2020/12/29 05:46:38;;;;;;;10.57;8.18;;;4.90;92.40;;;;;;6184341;23;20005;-89
2020/12/29 05:55:18;;;;;;;8.95;7.53;;;4.90;92.40;;;;;;6161782;23;20084;-87
2020/12/29 05:58:08;;;;;;;9.93;8.38;;;4.90;92.40;;;;;;6159457;23;20478;-89
2020/12/29 06:00:50;;;;;;;;;;;;;;;;;;;;;
2020/12/29 06:03:30;;;;;;;12.57;8.88;;;4.90;92.40;;;;;;6184903;23;20491;-88
2020/12/29 06:06:08;;;;;;;;;;;;;;;;;;;;;
2020/12/29 06:15:35;;;;;;;;;;;;;;;;;;;;;
2020/12/29 06:18:22;;;;;;;17.13;10.18;;;4.90;92.50;;;;;;6186035;23;20076;-87
2020/12/29 06:21:05;;;;;;;14.63;10.80;;;4.90;92.50;;;;;;6184517;23;20009;-86
2020/12/29 06:24:04;;;;;;;;;;;;;;;;;;;;;
2020/12/29 06:27:03;;;;;;;;;;;;;;;;;;;;;
2020/12/29 06:33:23;;;;;;;16.90;11.60;;;4.90;92.50;;;;;;6135393;23;20045;-88
2020/12/29 06:36:17;;;;;;;15.90;12.27;;;4.90;92.50;;;;;;6185444;23;20005;-87
2020/12/29 06:39:11;;;;;;;16.92;12.65;;;5.00;92.60;;;;;;6179335;23;20375;-87
2020/12/29 06:41:39;;;;;;;17.15;13.27;;;4.90;92.60;;;;;;6187032;23;20503;-89
2020/12/29 06:44:14;;;;;;;18.45;13.68;;;4.90;92.60;;;;;;6187645;23;19997;-88
2020/12/29 06:46:57;;;;;;;19.23;13.65;;;4.90;92.60;;;;;;6186033;23;20425;-87
2020/12/29 06:52:37;;;;;;;20.05;15.27;;;4.90;92.60;;;;;;6166728;23;20083;-87
2020/12/29 06:55:34;;;;;;;;;;;;;;;;;;;;;
2020/12/29 06:58:10;;;;;;;16.60;13.18;;;5.00;92.70;;;;;;6185786;23;20100;-87
2020/12/29 07:00:46;;;;;;;16.95;13.65;;;5.00;92.70;;;;;;6162345;23;20506;-87
2020/12/29 07:03:27;;;;;;;18.25;15.13;;;5.00;92.70;;;;;;6185780;23;20011;-87
2020/12/29 07:06:23;;;;;;;;;;;5.00;92.90;;;;;;6186941;23;20009;-87
2020/12/29 07:08:51;;;;;;;19.13;14.90;;;5.00;92.70;;;;;;6177449;23;20604;-87
2020/12/29 07:11:27;;;;;;;19.35;14.90;;;4.90;92.60;;;;;;6186452;23;20002;-88
2020/12/29 07:14:03;;;;;;;17.88;14.45;;;5.00;92.70;;;;;;6185873;23;20001;-86
2020/12/29 07:16:37;;;;;;;18.05;13.77;;;5.00;92.70;;;;;;6179950;23;20036;-86
2020/12/29 07:19:20;;;;;;;20.25;15.48;;;5.00;92.70;;;;;;6161065;23;20005;-87
2020/12/29 07:25:08;;;;;;;19.30;15.48;;;5.00;92.80;;;;;;6186713;23;20005;-87
2020/12/29 07:27:58;;;;;;;20.83;15.75;;;5.00;92.80;;;;;;6176648;23;20005;-88
2020/12/29 07:30:48;;;;;;;;;;;;;;;;;;;;;
2020/12/29 07:34:06;;;;;;;;;;;;;;;;;;;;;
2020/12/29 07:36:40;;;;;;;18.10;14.50;;;5.00;92.80;;;;;;6187578;23;20076;-87
2020/12/29 07:39:13;;;;;;;17.45;13.52;;;5.00;92.80;;;;;;6185401;23;20036;-87
2020/12/29 07:41:47;;;;;;;19.58;13.70;;;5.00;92.80;;;;;;6185935;23;20027;-87
2020/12/29 07:44:27;;;;;;;16.75;12.18;;;5.00;92.80;;;;;;6187543;23;20001;-88
2020/12/29 07:47:04;;;;;;;17.50;12.43;;;5.00;92.80;;;;;;6169406;23;20016;-87
2020/12/29 07:49:53;;;;;;;16.67;12.45;;;5.00;92.80;;;;;;6169181;23;20001;-87
2020/12/29 07:52:35;;;;;;;19.63;13.05;;;5.00;92.70;;;;;;6187181;23;20080;-87
2020/12/29 07:55:39;;;;;;;17.58;12.40;;;4.90;92.70;;;;;;6186767;23;20031;-87
2020/12/29 08:01:21;;;;;;;;;;;4.90;92.70;;;;;;6176475;23;20060;-87
2020/12/29 08:04:32;;;;;;;17.17;12.27;;;4.90;92.70;;;;;;6184790;23;20293;-89
2020/12/29 08:07:05;;;;;;;18.67;13.32;;;4.90;92.70;;;;;;6184651;23;20008;-87
2020/12/29 08:09:54;;;;;;;17.77;12.75;;;4.90;92.70;;;;;;6184479;23;20001;-87
2020/12/29 08:12:40;;;;;;;21.30;14.32;;;4.90;92.70;;;;;;6160065;23;20316;-87
2020/12/29 08:15:25;;;;;;;22.00;14.57;;;4.90;92.70;;;;;;6161880;23;20028;-87
2020/12/29 08:18:36;;;;;;;;;;;;;;;;;;;;;
2020/12/29 08:21:28;;;;;;;23.08;15.38;;;4.90;92.70;;;;;;6185645;23;20076;-89
2020/12/29 08:24:08;;;;;;;;;;;;;;;;;;;;;
2020/12/29 08:29:33;;;;;;;;;;;4.90;92.70;;;;;;6186464;23;20008;-87
2020/12/29 08:32:41;;;;;;;;;;;;;;;;;;;;;
2020/12/29 08:35:37;;;;;;;22.10;15.55;;;4.90;92.60;;;;;;6192212;23;20447;-85
2020/12/29 08:38:18;;;;;;;;;;;;;;;;;;;;;
2020/12/29 08:41:02;;;;;;;;;;;4.80;92.50;;;;;;6193243;23;20021;-86
2020/12/29 08:43:51;;;;;;;24.75;16.55;;;4.80;92.50;;;;;;6186025;23;19900;-86
2020/12/29 08:46:25;;;;;;;22.85;15.63;;;4.70;92.50;;;;;;6183980;23;20064;-85
2020/12/29 08:49:00;;;;;;;21.30;15.18;;;4.70;92.50;;;;;;6184716;23;20039;-88
2020/12/29 08:51:57;;;;;;;18.40;12.88;;;4.70;92.50;;;;;;6160544;23;20015;-89
2020/12/29 08:54:33;;;;;;;20.83;14.38;;;4.70;92.40;;;;;;6187646;23;20043;-86
2020/12/29 08:57:20;;;;;;;19.38;14.18;;;4.70;92.40;;;;;;6161302;23;20071;-87
2020/12/29 09:00:04;;;;;;;21.23;14.82;;;4.70;92.40;;;;;;6169951;23;20028;-86
2020/12/29 09:02:48;;;;;;;;;;;;;;;;;;;;;
2020/12/29 09:09:26;;;;;;;22.15;15.38;;;4.60;92.30;;;;;;6078811;23;20015;-86
2020/12/29 09:12:39;;;;;;;22.83;15.13;;;4.60;92.30;;;;;;6194885;23;20446;-86
2020/12/29 09:15:08;;;;;;;19.48;13.20;;;4.60;92.40;;;;;;6053035;23;20523;-87
2020/12/29 09:17:40;;;;;;;20.17;14.55;;;4.60;92.40;;;;;;6178584;23;20036;-85
2020/12/29 09:20:22;;;;;;;20.45;14.52;;;4.60;92.30;;;;;;6190183;23;20155;-85
2020/12/29 09:22:54;;;;;;;22.75;16.65;;;4.60;92.40;;;;;;6184444;23;20036;-86
2020/12/29 09:25:55;;;;;;;20.90;15.02;;;4.60;92.40;;;;;;6184160;23;20041;-86
2020/12/29 09:28:38;;;;;;;21.83;14.77;;;4.60;92.30;;;;;;6181922;23;20083;-87
2020/12/29 09:31:33;;;;;;;23.42;16.60;;;4.60;92.40;;;;;;6179744;23;20009;-86
2020/12/29 09:34:01;;;;;;;21.92;15.43;;;4.70;92.40;;;;;;6160347;23;20059;-85
2020/12/29 09:36:27;;;;;;;25.17;17.17;;;4.70;92.40;;;;;;6159023;23;20028;-84
2020/12/29 09:38:55;;;;;;;22.08;15.48;;;4.70;92.40;;;;;;6183523;23;20060;-86
2020/12/29 09:41:32;;;;;;;22.67;15.50;;;4.60;92.40;;;;;;6183191;23;20036;-86
2020/12/29 09:44:05;;;;;;;23.13;16.02;;;4.70;92.50;;;;;;6184310;23;20005;-85
2020/12/29 09:46:52;;;;;;;21.73;15.40;;;4.70;92.40;;;;;;6183753;23;20424;-86
2020/12/29 09:49:34;;;;;;;19.77;13.63;;;4.70;92.40;;;;;;6179080;23;20001;-86
2020/12/29 09:52:03;;;;;;;19.10;14.18;;;4.70;92.40;;;;;;6161544;23;20013;-86
2020/12/29 09:57:29;;;;;;;18.95;14.20;;;4.70;92.40;;;;;;6188181;23;20013;-87
2020/12/29 10:00:00;;;;;;;19.10;13.38;;;4.70;92.70;;;;;;6161406;23;20036;-87
2020/12/29 10:02:37;;;;;;;18.48;13.30;;;4.70;92.40;;;;;;6183648;23;20063;-87
2020/12/29 10:05:13;;;;;;;18.05;13.05;;;4.70;92.40;;;;;;6184182;23;20055;-86
2020/12/29 10:07:45;;;;;;;17.95;13.40;;;4.70;92.70;;;;;;6157553;23;20017;-86
2020/12/29 10:10:38;;;;;;;17.35;13.18;;;4.70;92.70;;;;;;6183347;23;20012;-86
2020/12/29 10:13:34;;;;;;;17.17;12.73;;;4.70;92.40;;;;;;6162907;23;20039;-86
2020/12/29 10:16:18;;;;;;;;;;;;;;;;;;;;;
2020/12/29 10:18:46;;;;;;;17.90;13.07;;;4.80;92.50;;;;;;6185060;23;20080;-87
2020/12/29 10:21:22;;;;;;;17.90;12.85;;;4.80;92.50;;;;;;6185994;23;20005;-85
2020/12/29 10:24:03;;;;;;;18.20;12.45;;;4.80;92.50;;;;;;6185579;23;20056;-87
2020/12/29 10:26:40;;;;;;;17.77;13.07;;;4.80;92.50;;;;;;6165705;23;20036;-85
2020/12/29 10:29:17;;;;;;;17.75;12.57;;;4.80;92.50;;;;;;6193792;23;20012;-85
2020/12/29 10:31:46;;;;;;;18.67;12.82;;;4.90;92.50;;;;;;6171014;23;20009;-85
2020/12/29 10:34:18;;;;;;;19.42;13.35;;;4.90;92.50;;;;;;6193020;23;20059;-86
2020/12/29 10:36:54;;;;;;;19.17;14.02;;;4.90;92.60;;;;;;6186455;23;20025;-86
2020/12/29 10:39:40;;;;;;;19.63;13.32;;;4.90;92.50;;;;;;6162871;23;20095;-87
2020/12/29 10:42:16;;;;;;;20.55;14.82;;;4.90;92.80;;;;;;6193032;23;20319;-86
2020/12/29 10:44:55;;;;;;;;;;;;;;;;;;;;;
2020/12/29 10:47:35;;;;;;;;;;;;;;;;;;;;;
2020/12/29 10:50:17;;;;;;;21.60;15.07;;;5.00;92.50;;;;;;6191033;23;20052;-87
2020/12/29 10:53:20;;;;;;;;;;;;;;;;;;;;;
2020/12/29 10:55:48;;;;;;;19.80;14.02;;;4.90;92.50;;;;;;6186511;23;20076;-85
2020/12/29 10:58:44;;;;;;;18.75;14.00;;;4.90;92.40;;;;;;6185096;23;20052;-86
2020/12/29 11:01:58;;;;;;;;;;;;;;;;;;;;;
2020/12/29 11:04:36;;;;;;;18.90;13.77;;;4.90;92.40;;;;;;6186588;23;20076;-86
2020/12/29 11:07:27;;;;;;;21.30;14.93;;;5.00;92.40;;;;;;6185458;23;19997;-87
2020/12/29 11:13:15;;;;;;;18.95;13.88;;;5.00;92.50;;;;;;6185734;23;20439;-87
2020/12/29 11:15:41;;;;;;;21.42;15.52;;;5.00;92.50;;;;;;6184913;23;20039;-87
2020/12/29 11:18:09;;;;;;;20.67;14.43;;;5.00;92.50;;;;;;6184875;23;20005;-87
2020/12/29 11:20:57;;;;;;;20.38;14.10;;;5.10;92.60;;;;;;6159030;23;20320;-85
2020/12/29 11:23:23;;;;;;;20.98;14.82;;;5.10;92.60;;;;;;6160602;23;20005;-86
2020/12/29 11:26:29;;;;;;;21.95;15.23;;;5.10;92.50;;;;;;6186033;23;19993;-85
2020/12/29 11:29:00;;;;;;;23.02;15.75;;;5.10;92.50;;;;;;6083540;23;20006;-84
2020/12/29 11:32:19;;;;;;;22.27;14.63;;;5.10;92.50;;;;;;6183476;23;20004;-86
2020/12/29 11:34:51;;;;;;;22.05;14.38;;;5.10;92.60;;;;;;6185501;23;20063;-87
2020/12/29 11:37:25;;;;;;;20.80;14.88;;;5.10;92.50;;;;;;6163470;23;20020;-85
2020/12/29 11:39:56;;;;;;;22.35;15.07;;;5.20;92.60;;;;;;6132063;23;20024;-86
2020/12/29 11:42:31;;;;;;;20.95;15.57;;;5.20;92.60;;;;;;6190646;23;20001;-86
2020/12/29 11:45:15;;;;;;;24.10;16.90;;;5.20;92.60;;;;;;6165787;23;20005;-86
2020/12/29 11:47:55;;;;;;;;;;;;;;;;;;;;;
2020/12/29 11:50:38;;;;;;;25.98;17.65;;;5.20;92.60;;;;;;6184872;23;20081;-86
2020/12/29 11:53:04;;;;;;;25.23;17.25;;;5.30;92.60;;;;;;6159056;23;20013;-86
2020/12/29 11:56:03;;;;;;;24.80;16.55;;;5.20;92.60;;;;;;6189804;23;20012;-85
2020/12/29 11:58:31;;;;;;;26.17;17.15;;;5.30;92.60;;;;;;6171009;23;20112;-86
2020/12/29 12:01:00;;;;;;;29.55;17.05;;;5.30;92.60;;;;;;6159314;23;20032;-86
2020/12/29 12:03:43;;;;;;;28.42;18.17;;;5.30;92.90;;;;;;6183950;23;20327;-88
2020/12/29 12:06:24;;;;;;;;;;;;;;;;;;;;;
2020/12/29 12:08:56;;;;;;;33.88;21.50;;;5.40;92.70;;;;;;6184427;23;20116;-84
2020/12/29 12:11:30;;;;;;;30.88;21.38;;;5.40;92.60;;;;;;6183203;23;20028;-86
2020/12/29 12:14:17;;;;;;;30.88;21.55;;;5.40;92.60;;;;;;6183494;23;20048;-87
2020/12/29 12:16:50;;;;;;;36.85;22.77;;;5.50;92.70;;;;;;6160309;23;20089;-86
2020/12/29 12:19:36;;;;;;;30.98;22.05;;;5.50;92.60;;;;;;6136030;23;20013;-85
2020/12/29 12:22:03;;;;;;;31.95;22.27;;;5.50;92.60;;;;;;6161390;23;20009;-87
2020/12/29 12:24:58;;;;;;;29.80;22.25;;;5.50;92.60;;;;;;6187994;23;20005;-87
2020/12/29 12:28:08;;;;;;;32.85;22.95;;;5.50;92.60;;;;;;6149219;23;20347;-86
2020/12/29 12:30:44;;;;;;;29.88;21.77;;;5.50;92.60;;;;;;6183307;23;20032;-86
2020/12/29 12:33:32;;;;;;;32.30;23.70;;;5.50;92.60;;;;;;6137881;23;20036;-86
2020/12/29 12:36:02;;;;;;;36.97;24.88;;;5.50;92.60;;;;;;6160111;23;20474;-85
2020/12/29 12:38:41;;;;;;;;;;;;;;;;;;;;;
2020/12/29 12:41:08;;;;;;;33.42;22.63;;;5.50;92.60;;;;;;6184255;23;20096;-87
2020/12/29 12:43:38;;;;;;;31.90;23.10;;;5.50;92.80;;;;;;6183384;23;19997;-86
2020/12/29 12:46:16;;;;;;;30.85;21.48;;;5.50;92.50;;;;;;6184605;23;20001;-87
2020/12/29 12:48:49;;;;;;;26.55;19.42;;;5.50;92.50;;;;;;6184080;23;20029;-86
2020/12/29 12:51:18;;;;;;;26.55;20.42;;;5.60;92.60;;;;;;6183812;23;20005;-85
2020/12/29 12:53:44;;;;;;;31.17;21.35;;;5.60;92.60;;;;;;6159096;23;20033;-85
2020/12/29 12:56:30;;;;;;;26.80;21.30;;;5.50;92.50;;;;;;6183748;23;20024;-87
2020/12/29 12:59:02;;;;;;;27.95;19.60;;;5.50;92.50;;;;;;6186165;23;20013;-86
2020/12/29 13:01:46;;;;;;;25.00;18.70;;;5.50;92.50;;;;;;6183417;23;20015;-85
2020/12/29 13:04:45;;;;;;;27.13;20.75;;;5.50;92.50;;;;;;6161394;23;20009;-86
2020/12/29 13:07:21;;;;;;;25.48;18.60;;;5.60;92.60;;;;;;6161424;23;20040;-85
2020/12/29 13:09:59;;;;;;;;;;;;;;;;;;;;;
2020/12/29 13:12:38;;;;;;;23.25;17.35;;;5.60;92.60;;;;;;6183757;23;20109;-86
2020/12/29 13:15:06;;;;;;;24.13;17.88;;;5.60;92.60;;;;;;6160495;23;20032;-85
2020/12/29 13:17:37;;;;;;;25.20;17.63;;;5.70;92.60;;;;;;6182616;23;20107;-85
2020/12/29 13:20:28;;;;;;;24.55;17.27;;;5.70;92.60;;;;;;6182547;23;20067;-85
2020/12/29 13:23:20;;;;;;;20.10;14.50;;;5.70;92.60;;;;;;6180803;23;20080;-86
2020/12/29 13:25:49;;;;;;;18.02;14.20;;;5.70;92.60;;;;;;6182002;23;20092;-85
2020/12/29 13:28:37;;;;;;;;;;;;;;;;;;;;;
2020/12/29 13:31:08;;;;;;;20.38;14.43;;;5.70;92.60;;;;;;6182455;23;20088;-86
2020/12/29 13:34:08;;;;;;;18.52;14.00;;;5.70;92.60;;;;;;6181518;23;20063;-86
2020/12/29 13:36:53;;;;;;;;;;;;;;;;;;;;;
2020/12/29 13:39:28;;;;;;;15.80;12.80;;;5.80;92.60;;;;;;6180928;23;20095;-86
2020/12/29 13:42:16;;;;;;;18.33;14.52;;;5.80;92.60;;;;;;6181061;23;20001;-86
2020/12/29 13:44:45;;;;;;;17.20;13.73;;;5.80;92.60;;;;;;6180185;23;20012;-86
2020/12/29 13:47:37;;;;;;;18.13;14.50;;;5.80;92.60;;;;;;6156841;23;20015;-86
2020/12/29 13:50:03;;;;;;;;;;;5.70;92.60;;;;;;6181914;23;20005;-86
2020/12/29 13:52:54;;;;;;;18.13;13.90;;;5.80;92.60;;;;;;6181339;23;19984;-86
2020/12/29 13:55:30;;;;;;;18.02;14.00;;;5.80;92.60;;;;;;6181110;23;19997;-85
2020/12/29 13:58:05;;;;;;;21.60;15.20;;;5.80;92.60;;;;;;6180488;23;20013;-86
2020/12/29 14:00:43;;;;;;;18.58;14.15;;;5.70;92.50;;;;;;6180785;23;20004;-87
2020/12/29 14:03:12;;;;;;;22.20;15.73;;;5.70;92.60;;;;;;6180104;23;20482;-86
2020/12/29 14:06:03;;;;;;;20.40;15.63;;;5.80;92.60;;;;;;6180366;23;20001;-86
2020/12/29 14:08:58;;;;;;;19.98;15.60;;;5.70;92.50;;;;;;6163617;23;20009;-86
2020/12/29 14:11:27;;;;;;;23.85;17.80;;;5.70;92.50;;;;;;6161806;23;20005;-86
2020/12/29 14:13:52;;;;;;;23.92;17.73;;;5.80;92.50;;;;;;6180273;23;20013;-85
2020/12/29 14:16:46;;;;;;;22.20;17.42;;;5.70;92.50;;;;;;6180275;23;20313;-86
2020/12/29 14:19:21;;;;;;;23.35;17.42;;;5.70;92.50;;;;;;6157600;23;20439;-86
2020/12/29 14:22:11;;;;;;;27.58;20.35;;;5.70;92.60;;;;;;6181125;23;20005;-85
2020/12/29 14:24:53;;;;;;;27.30;20.13;;;5.70;92.60;;;;;;6180560;23;20374;-86
2020/12/29 14:27:40;;;;;;;23.88;19.02;;;5.70;92.60;;;;;;6158333;23;20582;-87
2020/12/29 14:30:15;;;;;;;26.77;19.63;;;5.70;92.60;;;;;;6159139;23;20001;-88
2020/12/29 14:32:54;;;;;;;25.90;20.40;;;5.70;92.60;;;;;;6131995;23;20035;-86
2020/12/29 14:35:59;;;;;;;28.23;22.02;;;5.70;92.60;;;;;;6180768;23;20637;-85
2020/12/29 14:38:36;;;;;;;25.80;20.27;;;5.70;92.60;;;;;;6182387;23;20427;-87
2020/12/29 14:41:15;;;;;;;26.00;20.15;;;5.70;92.70;;;;;;6183137;23;20382;-86
2020/12/29 14:43:53;;;;;;;;;;;;;;;;;;;;;
2020/12/29 14:52:23;;;;;;;24.65;17.88;;;5.70;92.70;;;;;;6174228;23;19905;-86
2020/12/29 14:58:10;;;;;;;20.30;15.40;;;5.60;92.70;;;;;;6165599;23;20332;-85
2020/12/29 15:01:08;;;;;;;21.40;15.85;;;5.60;92.70;;;;;;6181047;23;20006;-89
2020/12/29 15:03:46;;;;;;;;;;;;;;;;;;;;;
2020/12/29 15:06:24;;;;;;;19.40;14.82;;;5.70;92.70;;;;;;6182496;23;20494;-86
2020/12/29 15:08:50;;;;;;;19.70;14.38;;;5.60;92.70;;;;;;6182751;23;20009;-85
2020/12/29 15:11:27;;;;;;;21.00;15.48;;;5.70;92.80;;;;;;6184445;23;20012;-86
2020/12/29 15:14:02;;;;;;;17.95;13.95;;;5.70;92.80;;;;;;6182552;23;20352;-86
2020/12/29 15:16:47;;;;;;;19.27;14.90;;;5.70;92.80;;;;;;6182945;23;20039;-86
2020/12/29 15:19:54;;;;;;;;;;;;;;;;;;;;;
2020/12/29 15:22:40;;;;;;;20.05;14.52;;;5.70;92.80;;;;;;6184065;23;20490;-86
2020/12/29 15:25:30;;;;;;;;;;;;;;;;;;;;;
2020/12/29 15:27:59;;;;;;;15.20;11.55;;;5.60;92.80;;;;;;6183749;23;20084;-86
2020/12/29 15:30:48;;;;;;;18.05;11.90;;;5.70;92.80;;;;;;6157284;23;20009;-85
2020/12/29 15:33:38;;;;;;;15.00;11.10;;;5.60;92.80;;;;;;6185711;23;20009;-86
2020/12/29 15:36:27;;;;;;;;;;;;;;;;;;;;;
2020/12/29 15:39:09;;;;;;;13.10;9.75;;;5.60;92.70;;;;;;6192505;23;20021;-87
2020/12/29 15:41:37;;;;;;;;;;;5.60;92.70;;;;;;6162725;23;20013;-86
2020/12/29 15:44:17;;;;;;;9.55;7.35;;;5.60;92.70;;;;;;6181811;23;19932;-86
2020/12/29 15:47:02;;;;;;;;;;;;;;;;;;;;;
2020/12/29 15:49:54;;;;;;;10.88;5.97;;;5.60;92.70;;;;;;6183877;23;20080;-86
2020/12/29 15:55:39;;;;;;;7.57;5.50;;;5.60;92.70;;;;;;6138334;23;20323;-86
2020/12/29 15:58:19;;;;;;;7.93;5.82;;;5.60;92.60;;;;;;6137454;23;20072;-86
2020/12/29 16:01:08;;;;;;;9.65;6.28;;;5.50;92.60;;;;;;6182893;23;20416;-87
2020/12/29 16:03:55;;;;;;;10.00;6.63;;;5.50;92.60;;;;;;6183904;23;20039;-88
2020/12/29 16:06:51;;;;;;;10.07;6.15;;;5.50;92.60;;;;;;6183863;23;20006;-86
2020/12/29 16:10:08;;;;;;;9.40;6.97;;;5.50;92.60;;;;;;6183653;23;20008;-88